Terminal Aerodrome Forecast
Issued by NWS Glasgow, MT

Home | Current Version | Previous Version | Text Only | Print | Product List | Glossary On
Versions: 1 2 3 4 5 6 7 8 9 10 11 12 13 14 15 16 17
000
FTUS45 KGGW 032300
TAFGGW
TAF
KGGW 032333Z 0400/0424 12008KT 6SM HZ FEW250
     FM040300 14007KT 3SM HZ FEW250
     FM041400 25008KT 6SM HZ SCT100
     FM041800 30010KT 6SM HZ SCT100=

USA.gov is the U.S. government's official web portal to all federal, state and local government web resources and services.